Terminal Aerodrome Forecast
Issued by NWS

Home | Current Version | Previous Version | Text Only | Print | Product List | Glossary Off
Versions: 1 2 3 4 5 6 7 8 9 10 11 12 13 14

000
FTUS43 KICT 142344
TAFCNU
TAF
KCNU 142344Z 1500/1524 33004KT P6SM SCT030 BKN050
     FM150600 31005KT P6SM OVC030
     FM150700 31005KT P6SM OVC040
     FM151000 30006KT P6SM SCT110
     FM151900 25010KT P6SM SKC=

USA.gov is the U.S. government's official web portal to all federal, state and local government web resources and services.